Huvudsida
METAR-TAF:

METAR-TAF

Flygplatser :

Notoddens flygplats. Tuven

Notoddens, Norge

latitud: 59-34N, longitud: 009-13E, höjd: 19 m

Aktuellt väderrapport

Denna rapport gjordes för 54 minuter sedan, klockan 11:50 UTC
Vind 16 kt från väst
Temperatur 11°C
Fuktighet 43%
Tryck 1016 hPa
Sikt 10 km eller mer
Inga moln under 1 500 m eller inga cumulonimbus

METAR: ENNO 221150Z 28016KT CAVOK 11/M01 Q1016

Tid: 14:44 (12:44 UTC)

Väderprognos

Denna rapport gjordes för 1 timme och 44 minuter sedan, klockan 11:00 UTC
Prognos gäller från 22 kl. 12 UTC till 22 kl. 17 UTC
Vind 12 kt från väst/nordväst
Sikt 10 km eller mer
Få moln på en höjd av 2000 ft
Temporärt
från 22 kl. 12 UTC till 22 kl. 14 UTC
Vind 15 kt från väst/nordväst i byarna ända upp till 25 kt
Blir
från 22 kl. 16 UTC till 22 kl. 17 UTC
Vind 5 kt från syd

TAF: ENNO 221100Z 2212/2217 30012KT 9999 FEW020 TEMPO 2212/2214 30015G25KT BECMG 2216/2217 18005KT

Aktuella väderrapporter och prognoser från 4000 flygplatser (METAR- och TAF-rapporter).

De tillgängliga stationerna syns som gula och röda prickar på kartan.

För musen över prickarna för att se namnen på stationerna.

Klicka sedan för att få väderrapporter och prognoser.

För att ändra kartan: Klicka på de gröna knapparna med ett svart kors på för att zooma in; den gröna knappen med ett streck på för att zooma ut; eller på de gröna pilarna för angränsande kartor.


METAR-TAF: